Time;durP1;ratioP1;P1;durP2;ratioP2;P2;SDS_P1;SDS_P2;PMS_P1;PMS_P2;Temp;Humidity;BMP_temperature;BMP_pressure;BME280_temperature;BME280_humidity;BME280_pressure;Samples;Min_cycle;Max_cycle;Signal;HPM_P1;HPM_P2
2022/06/27 00:00:57;;;;;;;47.75;6.63;;;40.10;39.00;;;;;;4922363;29;20088;-68
2022/06/27 00:03:24;;;;;;;36.95;5.68;;;40.00;39.80;;;;;;4919236;29;20105;-70
2022/06/27 00:05:50;;;;;;;37.00;5.30;;;39.90;40.00;;;;;;4936042;29;20056;-71
2022/06/27 00:08:17;;;;;;;46.72;5.85;;;39.80;40.60;;;;;;4909911;29;20161;-68
2022/06/27 00:10:43;;;;;;;32.83;4.90;;;40.00;40.30;;;;;;4909686;29;20156;-70
2022/06/27 00:13:10;;;;;;;27.52;4.72;;;39.80;39.90;;;;;;4922919;29;20055;-67
2022/06/27 00:15:36;;;;;;;33.17;5.18;;;39.70;39.90;;;;;;4919182;29;20401;-69
2022/06/27 00:18:03;;;;;;;50.03;5.28;;;39.70;39.70;;;;;;4919406;29;20055;-70
2022/06/27 00:20:29;;;;;;;50.03;5.53;;;39.60;40.40;;;;;;4920990;29;20052;-69
2022/06/27 00:22:56;;;;;;;39.60;4.60;;;39.50;40.20;;;;;;4923658;29;20103;-69
2022/06/27 00:25:22;;;;;;;43.88;5.13;;;39.40;40.40;;;;;;4917673;29;20148;-69
2022/06/27 00:27:49;;;;;;;38.03;4.97;;;39.40;41.40;;;;;;4923876;29;20065;-67
2022/06/27 00:30:15;;;;;;;28.38;5.00;;;39.50;40.70;;;;;;4926055;29;20062;-68
2022/06/27 00:32:42;;;;;;;36.30;6.72;;;39.50;40.10;;;;;;4921791;29;20087;-68
2022/06/27 00:35:11;;;;;;;38.05;6.28;;;39.40;39.40;;;;;;4921032;29;20058;-68
2022/06/27 00:37:38;;;;;;;34.63;5.57;;;39.40;39.50;;;;;;4921018;29;20044;-66
2022/06/27 00:40:06;;;;;;;29.27;5.85;;;39.30;39.90;;;;;;4923122;29;20480;-67
2022/06/27 00:42:33;;;;;;;33.42;4.93;;;39.20;39.30;;;;;;4919251;29;20047;-62
2022/06/27 00:45:00;;;;;;;35.58;4.90;;;39.10;39.50;;;;;;4934757;29;20386;-64
2022/06/27 00:47:26;;;;;;;60.75;7.65;;;39.10;39.50;;;;;;4918102;29;20201;-66
2022/06/27 00:49:53;;;;;;;33.70;5.68;;;39.10;40.20;;;;;;4923623;29;20089;-67
2022/06/27 00:52:19;;;;;;;27.63;4.70;;;39.10;40.70;;;;;;4917481;29;20051;-69
2022/06/27 00:54:47;;;;;;;28.40;4.15;;;39.00;40.80;;;;;;4921092;29;20525;-67
2022/06/27 00:57:15;;;;;;;40.97;5.03;;;38.90;41.10;;;;;;4921936;29;20421;-66
2022/06/27 00:59:42;;;;;;;26.25;4.47;;;38.80;41.60;;;;;;4918793;29;20560;-67
2022/06/27 01:02:09;;;;;;;35.58;4.50;;;38.80;41.40;;;;;;4915414;29;20060;-71
2022/06/27 01:04:37;;;;;;;21.52;4.20;;;38.80;41.30;;;;;;4936528;29;20050;-67
2022/06/27 01:07:06;;;;;;;25.67;4.35;;;38.80;41.70;;;;;;4905538;29;20093;-69
2022/06/27 01:09:33;;;;;;;23.58;4.80;;;38.70;41.90;;;;;;4926986;29;20082;-65
2022/06/27 01:11:59;;;;;;;28.13;3.78;;;38.70;42.20;;;;;;4925811;28;20082;-65
2022/06/27 01:14:26;;;;;;;27.98;3.90;;;38.60;42.30;;;;;;4921620;29;20062;-65
2022/06/27 01:16:53;;;;;;;27.13;3.92;;;38.60;42.50;;;;;;4938716;28;20052;-67
2022/06/27 01:19:19;;;;;;;29.70;4.25;;;38.50;42.20;;;;;;4930311;29;20066;-68
2022/06/27 01:21:52;;;;;;;25.02;4.07;;;38.40;42.10;;;;;;4919981;29;20054;-69
2022/06/27 01:24:20;;;;;;;22.60;3.80;;;38.40;42.30;;;;;;4928019;29;20094;-68
2022/06/27 01:26:47;;;;;;;29.98;3.60;;;38.40;42.40;;;;;;4920506;29;20282;-67
2022/06/27 01:29:14;;;;;;;21.63;3.38;;;38.40;42.60;;;;;;4919865;29;20079;-68
2022/06/27 01:31:41;;;;;;;31.75;3.95;;;38.30;42.30;;;;;;4906503;29;20059;-67
2022/06/27 01:34:08;;;;;;;28.77;3.63;;;38.10;42.70;;;;;;4923327;29;20068;-68
2022/06/27 01:36:44;;;;;;;18.27;3.75;;;38.10;43.00;;;;;;4931074;29;20498;-67
2022/06/27 01:39:15;;;;;;;35.67;4.80;;;38.00;42.90;;;;;;4921832;29;20575;-67
2022/06/27 01:41:53;;;;;;;26.50;3.63;;;38.00;43.50;;;;;;4922344;29;20067;-69
2022/06/27 01:44:21;;;;;;;26.40;4.28;;;37.90;43.30;;;;;;4922177;29;20114;-67
2022/06/27 01:47:11;;;;;;;20.67;3.33;;;37.90;43.50;;;;;;4920257;29;20186;-68
2022/06/27 01:49:38;;;;;;;17.00;3.28;;;37.90;43.60;;;;;;4920386;29;20466;-70
2022/06/27 01:52:07;;;;;;;21.02;3.45;;;37.90;43.30;;;;;;4920393;29;20110;-68
2022/06/27 01:54:34;;;;;;;19.75;3.80;;;37.80;43.30;;;;;;4931502;29;20057;-67
2022/06/27 01:57:01;;;;;;;31.63;4.72;;;37.80;43.80;;;;;;4919591;29;20504;-69
2022/06/27 01:59:29;;;;;;;27.92;3.70;;;37.70;44.40;;;;;;4944422;29;20166;-68
2022/06/27 02:01:58;;;;;;;24.58;4.63;;;37.60;44.60;;;;;;4918605;29;20061;-69
2022/06/27 02:04:26;;;;;;;35.42;5.05;;;37.50;44.50;;;;;;4922518;29;20526;-68
2022/06/27 02:06:53;;;;;;;25.58;4.72;;;37.40;45.00;;;;;;4921115;29;20084;-67
2022/06/27 02:09:19;;;;;;;28.75;3.83;;;37.40;45.50;;;;;;4921361;29;20057;-70
2022/06/27 02:11:49;;;;;;;33.88;4.38;;;37.40;45.70;;;;;;4908720;29;20125;-71
2022/06/27 02:14:16;;;;;;;36.60;5.20;;;37.30;45.80;;;;;;4919757;29;20058;-69
2022/06/27 02:16:43;;;;;;;33.17;4.53;;;37.20;46.00;;;;;;4915696;29;20154;-70
2022/06/27 02:19:19;;;;;;;35.47;4.63;;;37.10;46.30;;;;;;4930535;29;20072;-71
2022/06/27 02:21:48;;;;;;;43.97;6.20;;;37.00;46.80;;;;;;4909989;29;20160;-69
2022/06/27 02:24:14;;;;;;;45.47;5.93;;;37.00;47.50;;;;;;4923149;29;20100;-69
2022/06/27 02:26:42;;;;;;;38.30;5.25;;;36.90;48.00;;;;;;4914235;29;20134;-68
2022/06/27 02:29:09;;;;;;;28.40;4.35;;;36.80;48.20;;;;;;4914473;29;20065;-67
2022/06/27 02:31:52;;;;;;;29.88;5.22;;;36.70;48.60;;;;;;4918770;29;20058;-68
2022/06/27 02:34:19;;;;;;;44.63;5.18;;;36.60;48.70;;;;;;4920873;29;20066;-67
2022/06/27 02:36:48;;;;;;;46.70;5.47;;;36.50;48.90;;;;;;4927818;29;20093;-67
2022/06/27 02:39:25;;;;;;;35.97;6.10;;;36.40;49.10;;;;;;4918285;29;20177;-67
2022/06/27 02:41:54;;;;;;;;;;;36.20;49.40;;;;;;4923891;29;20085;-70
2022/06/27 02:44:22;;;;;;;27.88;5.38;;;36.10;50.20;;;;;;4921232;29;20057;-66
2022/06/27 02:46:51;;;;;;;33.67;4.93;;;35.90;49.90;;;;;;4921469;29;20098;-68
2022/06/27 02:49:18;;;;;;;51.80;5.78;;;35.90;50.10;;;;;;4921979;29;20557;-67
2022/06/27 02:51:50;;;;;;;32.78;6.18;;;35.80;49.90;;;;;;4918045;29;20166;-70
2022/06/27 02:54:21;;;;;;;34.60;6.22;;;35.80;49.70;;;;;;4938038;29;20064;-67
2022/06/27 02:56:57;;;;;;;43.28;7.00;;;35.70;50.00;;;;;;4916598;29;20074;-68
2022/06/27 02:59:26;;;;;;;47.85;7.43;;;35.70;50.20;;;;;;4906168;29;20170;-67
2022/06/27 03:01:56;;;;;;;49.15;8.15;;;35.60;50.50;;;;;;4909434;29;20543;-69
2022/06/27 03:04:22;;;;;;;37.15;7.00;;;35.40;51.40;;;;;;4908380;29;20083;-69
2022/06/27 03:06:49;;;;;;;35.70;7.25;;;35.40;51.00;;;;;;4903110;29;20095;-67
2022/06/27 03:09:17;;;;;;;33.88;7.13;;;35.20;51.10;;;;;;4920901;29;20066;-69
2022/06/27 03:11:49;;;;;;;33.75;6.05;;;35.20;51.20;;;;;;4914932;29;20142;-68
2022/06/27 03:14:16;;;;;;;30.33;7.30;;;35.20;51.00;;;;;;4920210;29;20088;-70
2022/06/27 03:16:43;;;;;;;29.95;6.47;;;35.10;51.00;;;;;;4915622;29;20092;-68
2022/06/27 03:19:09;;;;;;;26.27;6.80;;;35.00;51.10;;;;;;4905813;29;20090;-72
2022/06/27 03:21:36;;;;;;;27.35;5.35;;;35.00;51.20;;;;;;4918276;29;20502;-70
2022/06/27 03:24:03;;;;;;;19.88;4.95;;;34.90;51.00;;;;;;4917526;29;20172;-70
2022/06/27 03:26:30;;;;;;;14.25;4.55;;;34.80;51.10;;;;;;4916637;29;20509;-70
2022/06/27 03:28:56;;;;;;;21.88;4.55;;;34.80;51.30;;;;;;4914920;29;20078;-71
2022/06/27 03:31:22;;;;;;;21.15;4.13;;;34.80;51.60;;;;;;4917914;29;20492;-72
2022/06/27 03:33:54;;;;;;;19.80;4.35;;;34.70;51.90;;;;;;4915216;29;20086;-73
2022/06/27 03:36:21;;;;;;;22.33;4.13;;;34.70;52.40;;;;;;4915153;29;20084;-71
2022/06/27 03:38:47;;;;;;;20.88;4.40;;;34.70;52.60;;;;;;4916134;29;20079;-72
2022/06/27 03:41:14;;;;;;;22.48;3.67;;;34.60;52.80;;;;;;4915983;29;20557;-71
2022/06/27 03:43:40;;;;;;;19.83;3.67;;;34.60;53.20;;;;;;4916951;29;20596;-72
2022/06/27 03:46:09;;;;;;;25.85;3.90;;;34.50;53.50;;;;;;4917165;29;20146;-70
2022/06/27 03:51:21;;;;;;;18.42;4.20;;;34.40;54.30;;;;;;4915362;29;20078;-71
2022/06/27 03:53:47;;;;;;;23.00;4.38;;;34.30;54.40;;;;;;4916660;29;20087;-70
2022/06/27 03:56:14;;;;;;;18.75;4.65;;;34.20;54.90;;;;;;4920714;29;20110;-71
2022/06/27 03:58:40;;;;;;;20.75;3.90;;;34.20;55.70;;;;;;4919779;29;20165;-71
2022/06/27 04:01:07;;;;;;;18.00;4.15;;;34.10;55.70;;;;;;4919253;29;20082;-70
2022/06/27 04:03:33;;;;;;;17.00;4.30;;;34.10;56.30;;;;;;4916869;29;20162;-71
2022/06/27 04:05:59;;;;;;;23.25;4.20;;;34.00;56.40;;;;;;4917294;29;20080;-71
2022/06/27 04:08:27;;;;;;;27.50;4.40;;;33.90;56.70;;;;;;4921786;29;20087;-71
2022/06/27 04:10:54;;;;;;;19.13;4.15;;;33.80;57.20;;;;;;4920006;29;20166;-70
2022/06/27 04:13:21;;;;;;;20.83;3.83;;;33.80;57.90;;;;;;4918357;29;20545;-69
2022/06/27 04:15:47;;;;;;;22.52;4.10;;;33.70;58.30;;;;;;4918227;29;20098;-71
2022/06/27 04:18:14;;;;;;;19.75;4.03;;;33.70;58.80;;;;;;4919175;29;20082;-69
2022/06/27 04:20:42;;;;;;;16.08;4.30;;;33.60;59.40;;;;;;4930337;29;20110;-68
2022/06/27 04:23:09;;;;;;;28.63;4.95;;;33.60;59.50;;;;;;4919677;29;20134;-70
2022/06/27 04:25:35;;;;;;;19.42;3.95;;;33.60;60.00;;;;;;4934134;29;20083;-71
2022/06/27 04:28:01;;;;;;;24.95;5.75;;;33.50;60.60;;;;;;4920065;29;20482;-69
2022/06/27 04:30:28;;;;;;;18.27;4.25;;;33.50;61.60;;;;;;4903455;29;20500;-68
2022/06/27 04:32:56;;;;;;;25.90;4.60;;;33.40;62.30;;;;;;4918213;29;20089;-67
2022/06/27 04:35:24;;;;;;;18.00;3.78;;;33.30;62.50;;;;;;4921976;29;20075;-68
2022/06/27 04:37:53;;;;;;;25.73;4.00;;;33.30;63.00;;;;;;4919804;29;20091;-71
2022/06/27 04:40:20;;;;;;;24.55;4.18;;;33.20;63.50;;;;;;4919563;29;20176;-70
2022/06/27 04:42:49;;;;;;;22.13;4.72;;;33.10;63.90;;;;;;4918454;29;20103;-69
2022/06/27 04:45:16;;;;;;;22.15;4.28;;;33.10;64.30;;;;;;4946919;28;20588;-68
2022/06/27 04:47:44;;;;;;;16.15;3.05;;;33.00;64.20;;;;;;4925069;29;20186;-70
2022/06/27 04:50:13;;;;;;;24.70;4.35;;;32.90;64.60;;;;;;4919573;29;20101;-70
2022/06/27 04:52:40;;;;;;;21.23;3.80;;;32.90;64.60;;;;;;4939563;29;20164;-71
2022/06/27 04:55:08;;;;;;;19.58;4.68;;;32.90;64.10;;;;;;4916909;29;20554;-69
2022/06/27 04:57:39;;;;;;;19.13;4.30;;;32.90;64.30;;;;;;4901800;29;20090;-70
2022/06/27 05:00:08;;;;;;;20.70;3.65;;;32.80;64.10;;;;;;4902771;29;20571;-70
2022/06/27 05:02:35;;;;;;;13.65;3.60;;;32.80;64.10;;;;;;4917494;29;20115;-70
2022/06/27 05:05:03;;;;;;;21.98;4.53;;;32.70;63.60;;;;;;4919761;29;20158;-70
2022/06/27 05:07:30;;;;;;;22.95;4.25;;;32.70;63.50;;;;;;4917273;29;20091;-70
2022/06/27 05:09:57;;;;;;;18.73;3.92;;;32.70;62.70;;;;;;4919531;29;20178;-69
2022/06/27 05:12:25;;;;;;;17.95;4.20;;;32.70;62.90;;;;;;4918605;29;20419;-70
2022/06/27 05:14:52;;;;;;;19.27;4.20;;;32.70;62.70;;;;;;4945362;29;20093;-70
2022/06/27 05:17:19;;;;;;;14.40;3.60;;;32.60;63.30;;;;;;4917281;29;20075;-70
2022/06/27 05:19:46;;;;;;;21.48;4.32;;;32.70;63.40;;;;;;4920005;29;20081;-70
2022/06/27 05:22:13;;;;;;;15.07;3.67;;;32.60;63.10;;;;;;4923284;29;20150;-72
2022/06/27 05:24:39;;;;;;;15.32;4.10;;;32.60;63.00;;;;;;4921643;29;20114;-72
2022/06/27 05:27:06;;;;;;;19.58;3.67;;;32.60;62.40;;;;;;4917154;29;20138;-71
2022/06/27 05:29:32;;;;;;;21.35;3.90;;;32.60;62.10;;;;;;4917553;29;20074;-73
2022/06/27 05:32:00;;;;;;;15.55;3.50;;;32.60;62.00;;;;;;4916748;29;20071;-72
2022/06/27 05:34:26;;;;;;;15.20;3.90;;;32.60;61.80;;;;;;4915767;29;20091;-71
2022/06/27 05:36:53;;;;;;;16.10;3.63;;;32.60;62.10;;;;;;4919071;29;20071;-71
2022/06/27 05:39:19;;;;;;;20.63;4.32;;;32.60;62.70;;;;;;4933830;28;20079;-71
2022/06/27 05:41:46;;;;;;;19.30;3.83;;;32.50;63.90;;;;;;4915706;29;20088;-69
2022/06/27 05:44:15;;;;;;;18.20;4.22;;;32.40;65.20;;;;;;4900373;29;20454;-72
2022/06/27 05:46:42;;;;;;;25.52;4.35;;;32.30;66.20;;;;;;4920100;29;20147;-73
2022/06/27 05:49:11;;;;;;;32.25;4.57;;;32.30;66.90;;;;;;4917951;29;20091;-71
2022/06/27 05:51:38;;;;;;;26.77;5.00;;;32.10;67.80;;;;;;4917577;29;20473;-67
2022/06/27 05:54:05;;;;;;;47.55;5.68;;;32.00;67.00;;;;;;4906895;29;20072;-74
2022/06/27 05:56:33;;;;;;;33.83;5.50;;;32.00;66.80;;;;;;4914438;29;20543;-70
2022/06/27 05:59:01;;;;;;;33.25;5.45;;;31.90;66.30;;;;;;4900244;29;20188;-67
2022/06/27 06:01:27;;;;;;;322.27;22.52;;;31.90;65.00;;;;;;4918464;29;20157;-70
2022/06/27 06:03:56;;;;;;;734.25;54.15;;;32.00;65.60;;;;;;4918095;29;20093;-69
2022/06/27 06:06:24;;;;;;;57.63;6.68;;;31.90;65.80;;;;;;4928488;29;20106;-69
2022/06/27 06:08:53;;;;;;;26.25;4.13;;;31.90;64.90;;;;;;4932019;29;20072;-69
2022/06/27 06:11:19;;;;;;;24.75;4.40;;;31.90;64.50;;;;;;4918866;29;20083;-68
2022/06/27 06:13:46;;;;;;;29.30;4.35;;;31.90;64.10;;;;;;4920385;29;20545;-68
2022/06/27 06:16:19;;;;;;;25.40;4.18;;;31.90;63.40;;;;;;4916756;29;20099;-70
2022/06/27 06:18:53;;;;;;;22.88;4.38;;;31.90;63.40;;;;;;4915521;29;20454;-71
2022/06/27 06:21:21;;;;;;;18.92;3.67;;;31.90;63.60;;;;;;4899830;29;20078;-67
2022/06/27 06:23:49;;;;;;;17.10;4.47;;;31.90;64.20;;;;;;4912153;29;20107;-69
2022/06/27 06:26:16;;;;;;;17.02;3.55;;;31.80;65.70;;;;;;4914359;29;20103;-70
2022/06/27 06:28:48;;;;;;;16.35;3.33;;;31.70;67.00;;;;;;4918862;29;20071;-70
2022/06/27 06:31:21;;;;;;;24.67;4.68;;;31.40;68.30;;;;;;4916592;29;20478;-70
2022/06/27 06:33:52;;;;;;;16.60;4.05;;;31.40;68.80;;;;;;4916544;29;20091;-69
2022/06/27 06:36:21;;;;;;;16.83;3.67;;;31.40;68.60;;;;;;4927799;29;20075;-69
2022/06/27 06:38:49;;;;;;;20.45;4.10;;;31.30;68.70;;;;;;4922039;29;20162;-69
2022/06/27 06:41:16;;;;;;;17.90;3.75;;;31.40;68.50;;;;;;4903684;29;20098;-69
2022/06/27 06:43:45;;;;;;;20.85;4.28;;;31.40;68.40;;;;;;4913227;29;20083;-68
2022/06/27 06:46:12;;;;;;;17.38;3.65;;;31.40;68.40;;;;;;4915676;29;20163;-70
2022/06/27 06:48:40;;;;;;;17.67;3.85;;;31.30;68.60;;;;;;4918464;29;20089;-69
2022/06/27 06:51:07;;;;;;;19.73;4.30;;;31.40;68.70;;;;;;4916437;29;20086;-67
2022/06/27 06:53:38;;;;;;;17.25;3.70;;;31.30;69.10;;;;;;4918151;29;20083;-69
2022/06/27 06:56:05;;;;;;;19.90;3.88;;;31.30;69.40;;;;;;4915936;29;20182;-70
2022/06/27 06:58:32;;;;;;;29.98;4.82;;;31.40;69.60;;;;;;4907883;29;20102;-68
2022/06/27 07:00:58;;;;;;;30.10;5.05;;;31.40;69.80;;;;;;4917392;29;20082;-69
2022/06/27 07:03:25;;;;;;;23.50;4.18;;;31.40;70.00;;;;;;4929527;29;20126;-69
2022/06/27 07:05:51;;;;;;;41.85;5.45;;;31.40;70.10;;;;;;4929104;29;20526;-71
2022/06/27 07:08:18;;;;;;;24.02;4.22;;;31.30;70.40;;;;;;4917125;29;20096;-68
2022/06/27 07:10:44;;;;;;;27.23;4.43;;;31.40;70.70;;;;;;4933931;28;20076;-70
2022/06/27 07:13:11;;;;;;;27.65;4.80;;;31.40;70.80;;;;;;4916676;29;20080;-69
2022/06/27 07:15:38;;;;;;;22.50;4.15;;;31.40;70.60;;;;;;4915882;29;20123;-69
2022/06/27 07:18:05;;;;;;;33.33;4.60;;;31.40;70.70;;;;;;4917530;29;20098;-70
2022/06/27 07:20:33;;;;;;;24.40;4.05;;;31.40;71.10;;;;;;4917500;29;20534;-70
2022/06/27 07:23:04;;;;;;;32.70;3.90;;;31.40;71.40;;;;;;4916491;29;21871;-71
2022/06/27 07:25:31;;;;;;;29.40;4.45;;;31.30;71.50;;;;;;4931344;28;20078;-71
2022/06/27 07:27:59;;;;;;;17.20;4.20;;;31.30;71.50;;;;;;4900744;29;20131;-71
2022/06/27 07:30:26;;;;;;;16.33;4.03;;;31.30;71.70;;;;;;4919571;29;20079;-71
2022/06/27 07:32:54;;;;;;;19.75;3.95;;;31.30;71.80;;;;;;4919558;29;21038;-72
2022/06/27 07:35:20;;;;;;;20.33;4.25;;;31.20;71.70;;;;;;4919007;29;20079;-70
2022/06/27 07:37:48;;;;;;;15.07;3.10;;;31.20;71.70;;;;;;4920297;29;20082;-72
2022/06/27 07:40:22;;;;;;;14.93;3.88;;;31.20;71.70;;;;;;4902418;29;20094;-71
2022/06/27 07:42:51;;;;;;;19.17;3.25;;;31.20;71.30;;;;;;4920673;29;20121;-71
2022/06/27 07:45:19;;;;;;;18.58;3.78;;;31.10;71.10;;;;;;4921298;29;20542;-71
2022/06/27 07:47:46;;;;;;;18.48;3.83;;;31.10;70.80;;;;;;4918937;29;20371;-72
2022/06/27 07:50:58;;;;;;;18.40;3.67;;;31.10;70.80;;;;;;4921900;29;20083;-69
2022/06/27 07:53:17;;;;;;;25.90;4.53;;;31.10;70.70;;;;;;4918693;29;20182;-72
2022/06/27 07:55:58;;;;;;;16.38;4.05;;;31.20;70.60;;;;;;4918684;29;20070;-73
2022/06/27 07:58:35;;;;;;;16.23;3.72;;;31.20;70.30;;;;;;4928698;29;20226;-72
2022/06/27 08:01:07;;;;;;;30.55;4.25;;;31.10;70.10;;;;;;4919824;29;20080;-72
2022/06/27 08:03:41;;;;;;;20.13;3.55;;;31.20;70.20;;;;;;4921674;29;20078;-71
2022/06/27 08:06:15;;;;;;;21.42;3.13;;;31.20;69.50;;;;;;4922675;29;20182;-71
2022/06/27 08:08:45;;;;;;;21.02;3.72;;;31.20;69.20;;;;;;4919483;29;20083;-72
2022/06/27 08:11:14;;;;;;;24.20;3.13;;;31.20;69.10;;;;;;4920239;29;20075;-72
2022/06/27 08:13:41;;;;;;;30.85;3.97;;;31.20;69.00;;;;;;4904309;29;20075;-74
2022/06/27 08:16:08;;;;;;;30.27;4.53;;;31.20;69.00;;;;;;4926541;29;20233;-72
2022/06/27 08:18:38;;;;;;;30.13;4.03;;;31.20;69.20;;;;;;4930921;29;20612;-71
2022/06/27 08:21:07;;;;;;;25.83;4.22;;;31.20;69.30;;;;;;4925609;29;20078;-70
2022/06/27 08:23:34;;;;;;;25.77;3.50;;;31.20;69.30;;;;;;4920031;29;20460;-73
2022/06/27 08:26:00;;;;;;;22.88;3.55;;;31.20;69.10;;;;;;4917276;29;20107;-71
2022/06/27 08:28:28;;;;;;;33.28;4.53;;;31.20;69.00;;;;;;4918459;29;20705;-72
2022/06/27 08:30:54;;;;;;;50.92;4.85;;;31.20;68.90;;;;;;4903542;29;20106;-71
2022/06/27 08:33:23;;;;;;;29.92;4.35;;;31.20;68.70;;;;;;4917701;29;20519;-70
2022/06/27 08:35:51;;;;;;;30.25;4.55;;;31.20;68.60;;;;;;4919292;29;20543;-70
2022/06/27 08:38:18;;;;;;;30.13;3.03;;;31.10;68.40;;;;;;4917567;29;20079;-69
2022/06/27 08:40:46;;;;;;;28.23;3.75;;;31.10;68.40;;;;;;4920374;29;20079;-70
2022/06/27 08:43:12;;;;;;;34.10;4.90;;;31.20;68.40;;;;;;4919968;29;20549;-70
2022/06/27 08:45:40;;;;;;;37.70;4.15;;;31.20;68.20;;;;;;4920932;29;21014;-70
2022/06/27 08:48:10;;;;;;;31.60;4.35;;;31.20;68.00;;;;;;4920196;29;20087;-72
2022/06/27 08:50:37;;;;;;;50.88;4.80;;;31.20;67.70;;;;;;4920532;29;20489;-70
2022/06/27 08:53:05;;;;;;;28.25;3.92;;;31.20;67.00;;;;;;4919680;29;20087;-70
2022/06/27 08:55:34;;;;;;;34.97;3.80;;;31.20;66.80;;;;;;4915192;29;20123;-69
2022/06/27 08:58:06;;;;;;;36.50;5.57;;;31.20;66.80;;;;;;4918847;29;20122;-72
2022/06/27 09:00:37;;;;;;;54.15;5.53;;;31.20;66.80;;;;;;4921077;29;20083;-70
2022/06/27 09:03:06;;;;;;;45.60;4.43;;;31.20;66.90;;;;;;4920762;29;20538;-73
2022/06/27 09:05:34;;;;;;;40.72;4.43;;;31.20;67.30;;;;;;4918035;29;20162;-71
2022/06/27 09:08:03;;;;;;;42.15;5.22;;;31.20;67.30;;;;;;4919390;29;20114;-70
2022/06/27 09:10:30;;;;;;;31.77;4.65;;;31.10;67.40;;;;;;4923077;29;20081;-72
2022/06/27 09:12:59;;;;;;;36.55;4.45;;;31.10;67.50;;;;;;4923395;29;20115;-68
2022/06/27 09:15:28;;;;;;;44.55;4.43;;;31.10;67.40;;;;;;4916300;29;20149;-70
2022/06/27 09:18:25;;;;;;;58.60;5.03;;;31.10;67.40;;;;;;4930029;29;20505;-70
2022/06/27 09:20:57;;;;;;;33.13;5.15;;;31.10;67.40;;;;;;4918296;29;20633;-66
2022/06/27 09:23:49;;;;;;;40.83;4.57;;;31.10;67.20;;;;;;4931907;29;20119;-70
2022/06/27 09:26:19;;;;;;;45.53;5.18;;;31.10;67.30;;;;;;4919134;29;21618;-72
2022/06/27 09:29:07;;;;;;;50.05;5.20;;;31.10;67.30;;;;;;4919853;29;20091;-69
2022/06/27 09:31:37;;;;;;;35.53;4.03;;;31.10;67.40;;;;;;4916837;29;20442;-70
2022/06/27 09:34:14;;;;;;;35.65;4.32;;;31.10;67.30;;;;;;4917932;29;20083;-70
2022/06/27 09:36:49;;;;;;;36.88;4.47;;;31.00;67.10;;;;;;4922513;29;20131;-67
2022/06/27 09:39:32;;;;;;;48.30;4.75;;;31.00;66.80;;;;;;4935381;29;21289;-71
2022/06/27 09:42:21;;;;;;;46.47;4.75;;;31.10;66.70;;;;;;4931917;29;20213;-72
2022/06/27 09:44:48;;;;;;;48.17;4.90;;;31.10;66.50;;;;;;4947162;28;20075;-70
2022/06/27 09:47:27;;;;;;;39.38;4.18;;;31.00;66.40;;;;;;4924400;29;20166;-68
2022/06/27 09:49:59;;;;;;;55.83;4.22;;;31.00;66.50;;;;;;4917193;29;20099;-70
2022/06/27 09:52:27;;;;;;;46.70;4.55;;;31.00;66.50;;;;;;4918564;29;20080;-70
2022/06/27 09:54:55;;;;;;;34.95;4.47;;;31.00;66.60;;;;;;4917742;29;20076;-73
2022/06/27 09:57:22;;;;;;;37.35;4.32;;;30.90;66.80;;;;;;4919069;29;20067;-70
2022/06/27 09:59:53;;;;;;;43.80;4.22;;;30.90;67.00;;;;;;4927241;29;20072;-70
2022/06/27 10:02:21;;;;;;;31.38;4.32;;;30.90;67.30;;;;;;4917811;29;20079;-71
2022/06/27 10:04:49;;;;;;;29.23;4.07;;;30.80;67.40;;;;;;4919427;29;20075;-67
2022/06/27 10:07:17;;;;;;;29.83;3.45;;;30.90;67.90;;;;;;4918751;29;20139;-71
2022/06/27 10:09:48;;;;;;;25.73;3.55;;;30.80;68.00;;;;;;4915001;29;20074;-68
2022/06/27 10:12:36;;;;;;;30.90;4.07;;;30.80;68.20;;;;;;4917528;29;20834;-71
2022/06/27 10:15:12;;;;;;;19.85;2.80;;;30.80;68.40;;;;;;4916322;29;20445;-69
2022/06/27 10:17:52;;;;;;;20.60;3.45;;;30.80;68.50;;;;;;4918815;29;20079;-69
2022/06/27 10:20:39;;;;;;;19.00;2.97;;;30.80;68.80;;;;;;4931910;29;20429;-73
2022/06/27 10:23:13;;;;;;;24.50;3.88;;;30.80;68.90;;;;;;4931073;29;20107;-70
2022/06/27 10:25:44;;;;;;;26.00;3.35;;;30.80;68.70;;;;;;4929378;29;20555;-71
2022/06/27 10:28:16;;;;;;;28.20;3.92;;;30.80;69.10;;;;;;4918697;29;20105;-70
2022/06/27 10:30:46;;;;;;;22.13;3.30;;;30.80;69.40;;;;;;4927751;29;20070;-73
2022/06/27 10:33:21;;;;;;;22.50;3.17;;;30.80;69.80;;;;;;4919546;29;20155;-70
2022/06/27 10:38:28;;;;;;;22.83;3.63;;;30.80;71.00;;;;;;4921073;29;20089;-70
2022/06/27 10:40:56;;;;;;;22.10;2.95;;;30.80;71.10;;;;;;4916788;29;20079;-70
2022/06/27 10:44:03;;;;;;;16.42;3.13;;;30.80;71.00;;;;;;4914404;29;20449;-71
2022/06/27 10:46:29;;;;;;;21.25;3.15;;;30.70;71.20;;;;;;4893001;29;20079;-68
2022/06/27 10:48:58;;;;;;;18.50;3.13;;;30.70;71.30;;;;;;4896936;29;20112;-71
2022/06/27 10:51:34;;;;;;;19.00;2.70;;;30.60;71.20;;;;;;4895467;29;20083;-71
2022/06/27 10:54:06;;;;;;;;;;;30.60;71.30;;;;;;4895621;29;20071;-68
2022/06/27 10:56:42;;;;;;;23.88;3.53;;;30.60;71.30;;;;;;4880253;29;20065;-70
2022/06/27 10:59:14;;;;;;;;;;;30.70;71.40;;;;;;4879269;29;20071;-71
2022/06/27 11:01:42;;;;;;;28.75;3.60;;;30.60;71.40;;;;;;4881813;29;19986;-70
2022/06/27 11:04:24;;;;;;;26.50;3.70;;;30.60;71.60;;;;;;4892791;29;20410;-70
2022/06/27 11:07:03;;;;;;;15.65;2.60;;;30.60;71.80;;;;;;4894332;29;20605;-71
2022/06/27 11:09:43;;;;;;;10.48;2.65;;;30.60;72.30;;;;;;4892849;29;20088;-70
2022/06/27 11:12:11;;;;;;;19.55;2.92;;;30.60;72.60;;;;;;4895128;29;20535;-69
2022/06/27 11:15:03;;;;;;;12.65;2.70;;;30.60;72.60;;;;;;4894418;29;20123;-70
2022/06/27 11:17:45;;;;;;;20.05;2.83;;;30.60;72.80;;;;;;4898141;29;20493;-69
2022/06/27 11:20:23;;;;;;;21.67;2.90;;;30.60;72.70;;;;;;4918531;29;20585;-71
2022/06/27 11:22:57;;;;;;;12.95;2.08;;;30.60;72.80;;;;;;4918351;29;20075;-72
2022/06/27 11:25:27;;;;;;;21.77;3.00;;;30.60;72.90;;;;;;4923863;29;20081;-71
2022/06/27 11:33:46;;;;;;;11.40;2.63;;;30.50;73.80;;;;;;4916401;29;20141;-71
2022/06/27 11:36:13;;;;;;;13.00;2.70;;;30.50;74.20;;;;;;4921074;29;20063;-70
2022/06/27 11:38:48;;;;;;;8.45;2.17;;;30.50;74.60;;;;;;4915262;29;20114;-68
2022/06/27 11:41:16;;;;;;;15.35;2.20;;;30.50;74.80;;;;;;4915837;29;20159;-69
2022/06/27 11:44:04;;;;;;;12.02;2.55;;;30.40;75.30;;;;;;4916344;29;20103;-69
2022/06/27 11:46:36;;;;;;;10.00;2.35;;;30.40;75.40;;;;;;4919689;29;20146;-71
2022/06/27 11:49:08;;;;;;;9.10;2.28;;;30.40;75.80;;;;;;4920319;29;20430;-71
2022/06/27 11:51:40;;;;;;;8.55;2.53;;;30.40;76.10;;;;;;4918390;29;20092;-73
2022/06/27 11:54:18;;;;;;;12.60;2.88;;;30.40;76.50;;;;;;4917263;29;20202;-71
2022/06/27 11:56:50;;;;;;;13.48;2.53;;;30.40;76.60;;;;;;4914567;29;20086;-68
2022/06/27 11:59:18;;;;;;;15.95;3.80;;;30.40;76.70;;;;;;4915415;29;20095;-69
2022/06/27 12:01:51;;;;;;;22.88;4.88;;;30.50;77.00;;;;;;4920503;29;20076;-69
2022/06/27 12:04:20;;;;;;;13.07;4.68;;;30.40;77.20;;;;;;4934902;29;20083;-70
2022/06/27 12:06:54;;;;;;;18.55;5.20;;;30.40;77.40;;;;;;4915867;29;20088;-69
2022/06/27 12:09:23;;;;;;;19.30;5.05;;;30.40;77.50;;;;;;4915821;29;20075;-71
2022/06/27 12:12:01;;;;;;;20.38;4.72;;;30.40;78.00;;;;;;4916924;29;20546;-69
2022/06/27 12:14:29;;;;;;;23.25;5.00;;;30.40;78.10;;;;;;4927545;29;20098;-71
2022/06/27 12:16:59;;;;;;;15.52;4.15;;;30.30;78.20;;;;;;4918074;29;20106;-72
2022/06/27 12:19:28;;;;;;;20.77;4.32;;;30.30;78.60;;;;;;4921248;29;20103;-71
2022/06/27 12:21:54;;;;;;;18.85;4.70;;;30.30;78.70;;;;;;4918500;29;20403;-68
2022/06/27 12:24:21;;;;;;;15.80;3.97;;;30.30;78.80;;;;;;4919529;29;20163;-70
2022/06/27 12:26:48;;;;;;;14.50;3.70;;;30.20;79.10;;;;;;4916969;29;20102;-70
2022/06/27 12:29:15;;;;;;;18.70;4.15;;;30.20;79.30;;;;;;4918572;29;20158;-70
2022/06/27 12:31:42;;;;;;;19.35;4.22;;;30.20;79.60;;;;;;4917895;29;20549;-72
2022/06/27 12:34:08;;;;;;;17.88;4.60;;;30.20;79.90;;;;;;4920171;29;20080;-71
2022/06/27 12:36:36;;;;;;;15.35;4.20;;;30.20;80.30;;;;;;4933459;29;20549;-70
2022/06/27 12:39:04;;;;;;;16.65;4.70;;;30.20;80.70;;;;;;4919868;29;20117;-68
2022/06/27 12:41:31;;;;;;;24.38;4.20;;;30.20;81.30;;;;;;4917246;29;20493;-69
2022/06/27 12:43:57;;;;;;;11.85;4.20;;;30.20;81.50;;;;;;4919532;29;20083;-70
2022/06/27 12:46:24;;;;;;;24.83;4.85;;;30.10;81.90;;;;;;4921430;29;20079;-71
2022/06/27 12:48:53;;;;;;;23.30;4.85;;;30.10;82.40;;;;;;4922916;29;20079;-72
2022/06/27 12:51:20;;;;;;;27.17;5.78;;;30.10;82.80;;;;;;4924576;29;20087;-71
2022/06/27 12:53:46;;;;;;;21.77;4.47;;;30.10;82.90;;;;;;4921105;29;20074;-70
2022/06/27 12:56:14;;;;;;;24.15;4.72;;;30.10;83.20;;;;;;4917842;29;20088;-71
2022/06/27 12:58:40;;;;;;;17.92;4.40;;;30.10;83.40;;;;;;4919309;29;20076;-72
2022/06/27 13:01:08;;;;;;;17.33;4.47;;;30.10;83.70;;;;;;4923073;29;20104;-71